Time;durP1;ratioP1;P1;durP2;ratioP2;P2;SDS_P1;SDS_P2;PMS_P1;PMS_P2;Temp;Humidity;BMP_temperature;BMP_pressure;BME280_temperature;BME280_humidity;BME280_pressure;Samples;Min_cycle;Max_cycle;Signal;HPM_P1;HPM_P2
2023/10/19 00:02:08;;;;;;;7.38;5.50;;;;;;;-145.63;56.59;39368.44;5045807;28;20027;-68
2023/10/19 00:04:37;;;;;;;6.38;5.18;;;;;;;-145.63;56.34;39374.31;5045877;28;20048;-66
2023/10/19 00:07:06;;;;;;;6.57;5.35;;;;;;;-145.63;56.27;39411.47;5045925;28;20022;-66
2023/10/19 00:09:37;;;;;;;8.77;6.50;;;;;;;-145.63;56.26;39389.97;5045205;28;20025;-71
2023/10/19 00:12:06;;;;;;;8.18;6.00;;;;;;;-145.63;56.29;39388.00;5045987;28;20021;-70
2023/10/19 00:14:32;;;;;;;9.70;5.38;;;;;;;-145.63;56.26;39405.59;5045834;28;20029;-69
2023/10/19 00:17:01;;;;;;;11.57;5.93;;;;;;;-145.63;56.27;39409.53;5045761;28;20037;-67
2023/10/19 00:19:30;;;;;;;6.47;5.43;;;;;;;-145.63;56.46;39407.56;5045331;28;20132;-67
2023/10/19 00:22:01;;;;;;;8.38;5.18;;;;;;;-145.63;56.41;39388.00;5025893;28;20021;-66
2023/10/19 00:24:27;;;;;;;8.65;5.47;;;;;;;-145.63;56.73;39372.34;5043899;28;20344;-69
2023/10/19 00:26:54;;;;;;;7.75;5.50;;;;;;;-145.63;56.64;39393.88;5045469;28;20034;-66
2023/10/19 00:29:39;;;;;;;8.00;5.45;;;;;;;-145.63;56.44;39388.00;5045338;28;20026;-67
2023/10/19 00:32:06;;;;;;;5.78;5.25;;;;;;;-145.63;56.66;39427.13;5044197;28;20033;-66
2023/10/19 00:34:33;;;;;;;7.10;6.28;;;;;;;-145.63;57.01;39409.53;5043953;28;20222;-69
2023/10/19 00:37:07;;;;;;;7.43;6.28;;;;;;;-145.63;57.45;39389.97;5032647;28;20037;-69
2023/10/19 00:39:53;;;;;;;6.72;5.45;;;;;;;-145.63;56.91;39413.44;5044605;28;20032;-68
2023/10/19 00:42:24;;;;;;;7.15;5.75;;;;;;;-145.63;56.55;39368.44;5045193;28;20033;-69
2023/10/19 00:44:50;;;;;;;6.55;5.85;;;;;;;-145.63;57.03;39389.97;5044997;28;20068;-66
2023/10/19 00:47:18;;;;;;;6.50;5.90;;;;;;;-145.63;57.30;39413.44;5044997;28;20021;-67
2023/10/19 00:49:48;;;;;;;7.32;6.35;;;;;;;-145.63;57.11;39380.19;5044851;28;20021;-67
2023/10/19 00:52:23;;;;;;;7.53;5.22;;;;;;;-145.63;56.99;39378.22;5045068;28;20053;-68
2023/10/19 00:54:52;;;;;;;6.63;5.57;;;;;;;-145.63;57.33;39372.34;5023969;28;20296;-68
2023/10/19 00:57:37;;;;;;;6.03;5.45;;;;;;;-145.63;56.99;39384.09;5052914;28;20266;-68
2023/10/19 01:00:12;;;;;;;6.55;5.55;;;;;;;-145.63;56.92;39397.78;5030176;28;20026;-69
2023/10/19 01:02:45;;;;;;;6.30;5.70;;;;;;;-145.63;56.78;39403.66;5035989;28;20029;-68
2023/10/19 01:05:14;;;;;;;5.30;4.80;;;;;;;-145.63;57.05;39397.78;5044590;28;20201;-67
2023/10/19 01:07:40;;;;;;;6.82;5.80;;;;;;;-145.63;56.35;39407.56;5044795;28;20049;-67
2023/10/19 01:10:08;;;;;;;6.55;5.50;;;;;;;-145.63;56.62;39393.88;5044980;28;20290;-68
2023/10/19 01:12:38;;;;;;;5.68;5.13;;;;;;;-145.63;56.55;39346.94;5044539;28;20201;-67
2023/10/19 01:15:18;;;;;;;6.93;5.80;;;;;;;-145.63;56.80;39391.91;5044284;28;20041;-69
2023/10/19 01:17:46;;;;;;;6.32;5.60;;;;;;;-145.63;56.78;39399.75;5037610;28;20347;-67
2023/10/19 01:31:22;;;;;;;4.82;4.43;;;;;;;-145.63;56.91;39395.84;5032944;28;20049;-67
2023/10/19 01:33:49;;;;;;;6.35;5.30;;;;;;;-145.63;56.84;39429.06;5039358;28;20322;-67
2023/10/19 01:36:17;;;;;;;5.97;5.35;;;;;;;-145.63;56.24;39393.88;5043932;28;20068;-67
2023/10/19 01:38:43;;;;;;;5.35;4.82;;;;;;;-145.63;56.74;39403.66;5043032;28;20029;-66
2023/10/19 01:41:18;;;;;;;6.30;5.57;;;;;;;-145.63;56.56;39380.19;5043524;28;20029;-66
2023/10/19 01:43:46;;;;;;;6.90;5.45;;;;;;;-145.63;56.36;39403.66;5043557;28;20087;-68
2023/10/19 01:46:21;;;;;;;5.75;4.72;;;;;;;-145.63;56.54;39458.41;5043996;28;20041;-68
2023/10/19 01:48:57;;;;;;;7.13;5.88;;;;;;;-145.63;56.63;39399.75;5032634;28;20025;-68
2023/10/19 01:51:26;;;;;;;6.35;5.72;;;;;;;-145.63;56.54;39384.09;5043710;28;20261;-67
2023/10/19 01:53:55;;;;;;;6.90;5.55;;;;;;;-145.63;56.37;39376.28;5043647;28;20033;-67
2023/10/19 01:56:21;;;;;;;4.82;4.43;;;;;;;-145.63;56.36;39405.59;5036115;28;20029;-67
2023/10/19 01:58:48;;;;;;;5.50;5.00;;;;;;;-145.63;57.05;39407.56;5027507;28;20029;-69
2023/10/19 02:03:58;;;;;;;6.00;5.40;;;;;;;-145.63;56.34;39374.31;5023817;28;20250;-69
2023/10/19 02:06:46;;;;;;;6.25;5.75;;;;;;;-145.63;56.07;39391.91;5040460;28;20027;-68
2023/10/19 02:11:41;;;;;;;7.32;6.40;;;;;;;-145.63;56.71;39397.78;5043550;28;20037;-66
2023/10/19 02:14:18;;;;;;;5.82;5.32;;;;;;;-145.63;56.13;39399.75;5043455;28;20325;-67
2023/10/19 02:16:51;;;;;;;5.70;5.10;;;;;;;-145.63;55.63;39415.38;5043476;28;20029;-69
2023/10/19 02:19:19;;;;;;;6.55;5.88;;;;;;;-145.63;55.90;39384.09;5043469;28;20017;-66
2023/10/19 02:21:47;;;;;;;12.00;9.60;;;;;;;-145.63;56.13;39372.34;5043122;28;20305;-65
2023/10/19 02:24:14;;;;;;;6.97;6.28;;;;;;;-145.63;56.26;39419.31;5043122;28;20384;-66
2023/10/19 02:26:44;;;;;;;7.60;6.25;;;;;;;-145.63;55.79;39376.28;5043199;28;20030;-66
2023/10/19 02:29:10;;;;;;;6.35;5.60;;;;;;;-145.63;55.94;39368.44;5041909;28;20026;-69
2023/10/19 02:31:40;;;;;;;7.13;6.43;;;;;;;-145.63;56.13;39411.47;5042307;28;20025;-66
2023/10/19 02:34:09;;;;;;;7.25;5.63;;;;;;;-145.63;56.51;39386.06;5042882;28;20041;-68
2023/10/19 02:36:37;;;;;;;6.72;6.00;;;;;;;-145.63;56.26;39382.13;5042756;28;20045;-68
2023/10/19 02:39:07;;;;;;;7.28;6.57;;;;;;;-145.63;56.47;39374.31;5042937;28;20033;-67
2023/10/19 02:41:37;;;;;;;7.38;6.18;;;;;;;-145.63;55.98;39388.00;5042779;28;20047;-68
2023/10/19 02:46:34;;;;;;;7.30;6.25;;;;;;;-145.63;56.03;39395.84;5042928;28;20033;-68
2023/10/19 02:49:11;;;;;;;8.20;6.32;;;;;;;-145.63;55.99;39395.84;5042812;28;20098;-66
2023/10/19 02:51:47;;;;;;;8.55;6.38;;;;;;;-145.63;56.74;39409.53;5042595;28;20040;-67
2023/10/19 02:54:30;;;;;;;6.05;5.55;;;;;;;-145.63;56.16;39427.13;5041364;28;20317;-67
2023/10/19 02:56:58;;;;;;;8.18;6.40;;;;;;;-145.63;55.82;39415.38;5042788;28;20030;-67
2023/10/19 02:59:28;;;;;;;7.45;6.63;;;;;;;-145.63;56.26;39417.34;5042890;28;20344;-70
2023/10/19 03:04:37;;;;;;;7.05;6.30;;;;;;;-145.63;55.80;39376.28;5042811;28;20034;-67
2023/10/19 03:07:07;;;;;;;6.40;5.80;;;;;;;-145.63;55.89;39368.44;5042794;28;20029;-67
2023/10/19 03:09:36;;;;;;;7.22;6.38;;;;;;;-145.63;55.88;39364.53;5042468;28;20041;-68
2023/10/19 03:12:10;;;;;;;7.40;6.38;;;;;;;-145.63;55.98;39376.28;5042446;28;20025;-69
2023/10/19 03:14:37;;;;;;;7.10;6.40;;;;;;;-145.63;56.24;39389.97;5042615;28;20302;-67
2023/10/19 03:17:03;;;;;;;7.00;6.28;;;;;;;-145.63;56.07;39346.94;5041699;28;20044;-68
2023/10/19 03:19:29;;;;;;;7.43;6.65;;;;;;;-145.63;56.28;39376.28;5042275;28;20025;-67
2023/10/19 03:21:55;;;;;;;9.25;7.03;;;;;;;-145.63;55.75;39378.22;5042614;28;20029;-69
2023/10/19 03:27:21;;;;;;;7.32;6.63;;;;;;;-145.63;56.64;39388.00;5042480;28;20096;-69
2023/10/19 03:29:53;;;;;;;9.38;7.45;;;;;;;-145.63;56.40;39397.78;5042109;28;20041;-66
2023/10/19 03:32:22;;;;;;;7.90;7.10;;;;;;;-145.63;56.39;39380.19;5042312;28;20108;-66
2023/10/19 03:34:55;;;;;;;7.50;6.90;;;;;;;-145.63;56.28;39405.59;5042467;28;20341;-70
2023/10/19 03:37:25;;;;;;;7.38;6.65;;;;;;;-145.63;56.17;39368.44;5042411;28;20074;-67
2023/10/19 03:39:51;;;;;;;8.18;7.00;;;;;;;-145.63;56.19;39405.59;5042342;28;20075;-70
2023/10/19 03:42:17;;;;;;;9.18;7.40;;;;;;;-145.63;56.28;39388.00;5042204;28;20029;-67
2023/10/19 03:47:12;;;;;;;8.20;7.47;;;;;;;-145.63;56.01;39378.22;5042419;28;20033;-68
2023/10/19 03:49:39;;;;;;;8.05;7.35;;;;;;;-145.63;55.99;39388.00;5042555;28;20029;-69
2023/10/19 03:54:44;;;;;;;7.88;7.07;;;;;;;-145.63;56.02;39380.19;5042241;28;20056;-67
2023/10/19 03:57:12;;;;;;;9.30;6.88;;;;;;;-145.63;56.28;39417.34;5042137;28;20097;-67
2023/10/19 03:59:41;;;;;;;7.70;7.00;;;;;;;-145.63;56.47;39393.88;5042358;28;20021;-68
2023/10/19 04:02:13;;;;;;;8.38;7.57;;;;;;;-145.63;56.59;39384.09;5041515;28;20064;-68
2023/10/19 04:04:43;;;;;;;8.82;7.03;;;;;;;-145.63;56.24;39421.25;5041197;28;20056;-68
2023/10/19 04:07:31;;;;;;;8.40;6.93;;;;;;;-145.63;56.41;39446.69;5045660;28;20037;-66
2023/10/19 04:12:42;;;;;;;7.88;7.18;;;;;;;-145.63;55.99;39388.00;5041712;28;20037;-68
2023/10/19 04:15:18;;;;;;;7.88;7.18;;;;;;;-145.63;55.99;39403.66;5045261;28;20214;-72
2023/10/19 04:17:45;;;;;;;8.07;7.15;;;;;;;-145.63;55.78;39391.91;5045652;28;20045;-70
2023/10/19 04:22:45;;;;;;;9.60;7.68;;;;;;;-145.63;55.94;39386.06;5045522;28;20028;-69
2023/10/19 04:25:12;;;;;;;7.97;7.18;;;;;;;-145.63;56.44;39397.78;5045021;28;20021;-71
2023/10/19 04:27:42;;;;;;;8.70;7.90;;;;;;;-145.63;56.34;39382.13;5045159;28;20198;-68
2023/10/19 04:30:21;;;;;;;7.90;7.20;;;;;;;-145.63;56.64;39413.44;5044247;28;20017;-69
2023/10/19 04:32:52;;;;;;;8.57;7.78;;;;;;;-145.63;56.45;39434.94;5035828;28;20037;-71
2023/10/19 04:35:22;;;;;;;9.63;8.80;;;;;;;-145.63;56.62;39395.84;5043308;28;20056;-70
2023/10/19 04:37:52;;;;;;;8.27;7.57;;;;;;;-145.63;56.93;39419.31;5044598;28;20068;-71
2023/10/19 04:40:22;;;;;;;8.95;8.15;;;;;;;-145.63;56.35;39407.56;5044915;28;20108;-70
2023/10/19 04:42:51;;;;;;;8.15;7.38;;;;;;;-145.63;56.26;39431.03;5043748;28;20025;-71
2023/10/19 04:45:16;;;;;;;8.07;7.38;;;;;;;-145.63;56.51;39421.25;5044920;28;20104;-70
2023/10/19 04:47:42;;;;;;;9.88;8.80;;;;;;;-145.63;56.86;39364.53;5044794;28;20034;-69
2023/10/19 04:50:10;;;;;;;9.60;8.68;;;;;;;-145.63;56.24;39454.50;5044579;28;20628;-70
2023/10/19 04:52:37;;;;;;;9.35;8.45;;;;;;;-145.63;55.75;39380.19;5044961;28;20087;-71
2023/10/19 04:55:03;;;;;;;9.60;8.70;;;;;;;-145.63;56.41;39427.13;5044239;28;20165;-71
2023/10/19 04:57:31;;;;;;;9.00;8.20;;;;;;;-145.63;56.37;39384.09;5043352;28;20186;-70
2023/10/19 04:59:57;;;;;;;9.30;8.35;;;;;;;-145.63;56.33;39382.13;5044327;28;20024;-71
2023/10/19 05:02:23;;;;;;;9.07;8.10;;;;;;;-145.63;56.52;39407.56;5044537;28;20064;-70
2023/10/19 05:04:49;;;;;;;9.25;8.35;;;;;;;-145.63;56.28;39403.66;5044008;28;20022;-69
2023/10/19 05:07:16;;;;;;;8.93;7.95;;;;;;;-145.63;56.28;39386.06;5044287;28;20187;-71
2023/10/19 05:09:43;;;;;;;10.18;9.05;;;;;;;-145.63;56.76;39413.44;5043338;28;20109;-71
2023/10/19 05:12:09;;;;;;;9.60;8.63;;;;;;;-145.63;56.49;39395.84;5043974;28;20045;-71
2023/10/19 05:14:36;;;;;;;10.00;9.00;;;;;;;-145.63;56.88;39397.78;5044022;28;20120;-70
2023/10/19 05:17:04;;;;;;;9.02;8.13;;;;;;;-145.63;56.34;39403.66;5034538;28;20059;-72
2023/10/19 05:19:31;;;;;;;10.30;9.18;;;;;;;-145.63;56.50;39356.72;5043173;28;20025;-73
2023/10/19 05:21:57;;;;;;;10.52;8.68;;;;;;;-145.63;56.03;39397.78;5043942;28;20033;-69
2023/10/19 05:24:22;;;;;;;9.43;8.43;;;;;;;-145.63;56.09;39442.78;5044081;28;20113;-70
2023/10/19 05:26:49;;;;;;;9.55;8.63;;;;;;;-145.63;56.47;39397.78;5043980;28;20032;-70
2023/10/19 05:29:15;;;;;;;10.00;9.02;;;;;;;-145.63;56.61;39372.34;5043997;28;20025;-70
2023/10/19 05:31:41;;;;;;;10.02;9.02;;;;;;;-145.63;56.17;39399.75;5043955;28;20036;-69
2023/10/19 05:34:08;;;;;;;9.23;8.43;;;;;;;-145.63;56.12;39425.16;5042187;28;20029;-69
2023/10/19 05:36:33;;;;;;;11.00;10.00;;;;;;;-145.63;55.86;39393.88;5034282;28;20302;-71
2023/10/19 05:38:59;;;;;;;10.52;9.50;;;;;;;-145.63;56.29;39368.44;5035544;28;20061;-71
2023/10/19 05:41:26;;;;;;;13.25;10.85;;;;;;;-145.63;56.32;39395.84;5042483;28;20321;-72
2023/10/19 05:43:53;;;;;;;10.05;9.05;;;;;;;-145.63;56.22;39403.66;5043486;28;20286;-70
2023/10/19 05:46:21;;;;;;;9.45;8.50;;;;;;;-145.63;56.13;39364.53;5043799;28;20400;-71
2023/10/19 05:48:49;;;;;;;10.60;9.23;;;;;;;-145.63;55.88;39386.06;5043829;28;20025;-70
2023/10/19 05:51:15;;;;;;;9.77;8.77;;;;;;;-145.63;55.25;39386.06;5043558;28;20026;-69
2023/10/19 05:53:41;;;;;;;10.00;9.00;;;;;;;-145.63;55.37;39407.56;5043729;28;20053;-69
2023/10/19 05:56:07;;;;;;;8.95;8.15;;;;;;;-145.63;55.59;39431.03;5043470;28;20060;-72
2023/10/19 05:58:33;;;;;;;9.75;8.85;;;;;;;-145.63;55.53;39386.06;5043762;28;20033;-69
2023/10/19 06:00:59;;;;;;;9.50;8.57;;;;;;;-145.63;55.67;39389.97;5043368;28;20225;-69
2023/10/19 06:03:25;;;;;;;9.45;8.55;;;;;;;-145.63;55.30;39386.06;5043428;28;20022;-72
2023/10/19 06:05:50;;;;;;;9.90;8.88;;;;;;;-145.63;55.28;39411.47;5042851;28;20041;-72
2023/10/19 06:08:16;;;;;;;9.98;8.88;;;;;;;-145.63;55.99;39411.47;5043318;28;20128;-73
2023/10/19 06:10:42;;;;;;;8.70;7.80;;;;;;;-145.63;55.49;39401.69;5043537;28;20021;-70
2023/10/19 06:13:09;;;;;;;9.20;8.10;;;;;;;-145.63;55.59;39417.34;5043527;28;20053;-71
2023/10/19 06:15:35;;;;;;;9.60;8.65;;;;;;;-145.63;54.88;39415.38;5041828;28;20029;-70
2023/10/19 06:18:01;;;;;;;9.02;7.85;;;;;;;-145.63;55.31;39384.09;5034648;28;20040;-70
2023/10/19 06:20:27;;;;;;;8.20;7.15;;;;;;;-145.63;55.26;39405.59;5042917;28;20035;-70
2023/10/19 06:22:56;;;;;;;8.23;7.43;;;;;;;-145.63;55.03;39415.38;5040544;28;20033;-72
2023/10/19 06:25:24;;;;;;;7.47;6.78;;;;;;;-145.63;54.86;39468.19;5042802;28;20037;-73
2023/10/19 06:27:51;;;;;;;7.38;6.50;;;;;;;-145.63;54.93;39388.00;5042322;28;20092;-71
2023/10/19 06:30:18;;;;;;;8.00;7.25;;;;;;;-145.63;55.15;39368.44;5042374;28;20455;-70
2023/10/19 06:32:52;;;;;;;9.02;7.30;;;;;;;-145.63;55.25;39425.16;5042696;28;20052;-72
2023/10/19 06:35:19;;;;;;;8.30;7.50;;;;;;;-145.63;55.29;39393.88;5036803;28;20105;-71
2023/10/19 06:37:45;;;;;;;7.90;7.10;;;;;;;-145.63;55.42;39397.78;5042981;28;20026;-71
2023/10/19 06:40:14;;;;;;;8.40;7.50;;;;;;;-145.63;55.47;39403.66;5038497;28;20352;-72
2023/10/19 06:42:41;;;;;;;7.78;7.07;;;;;;;-145.63;55.74;39399.75;5043073;28;20029;-71
2023/10/19 06:45:07;;;;;;;7.75;6.70;;;;;;;-145.63;55.51;39407.56;5042412;28;20026;-73
2023/10/19 06:47:37;;;;;;;7.70;6.93;;;;;;;-145.63;55.34;39376.28;5042305;28;20033;-70
2023/10/19 06:50:07;;;;;;;8.65;7.25;;;;;;;-145.63;55.32;39407.56;5042554;28;20021;-70
2023/10/19 06:52:35;;;;;;;9.00;7.53;;;;;;;-145.63;55.37;39384.09;5042792;28;20057;-69
2023/10/19 06:55:04;;;;;;;7.97;7.28;;;;;;;-145.63;55.39;38785.66;5042742;28;20076;-71
2023/10/19 06:57:32;;;;;;;8.25;7.18;;;;;;;-145.63;55.73;39389.97;5041470;28;20388;-71
2023/10/19 06:59:59;;;;;;;8.13;7.28;;;;;;;-145.63;55.57;39384.09;5038251;28;20032;-72
2023/10/19 07:02:26;;;;;;;8.85;7.95;;;;;;;-145.63;55.47;39438.84;5040069;28;20045;-72
2023/10/19 07:04:52;;;;;;;9.30;7.53;;;;;;;-145.63;55.91;39405.59;5041706;28;20025;-69
2023/10/19 07:07:18;;;;;;;9.57;8.45;;;;;;;-145.63;55.51;39411.47;5042227;28;20328;-70
2023/10/19 07:09:44;;;;;;;8.43;7.00;;;;;;;-145.63;56.18;39378.22;5042267;28;20029;-70
2023/10/19 07:12:10;;;;;;;9.50;8.48;;;;;;;-145.63;56.05;39368.44;5041483;28;20225;-69
2023/10/19 07:14:35;;;;;;;9.10;7.75;;;;;;;-145.63;55.76;39350.84;5038256;28;20068;-70
2023/10/19 07:17:01;;;;;;;10.73;8.60;;;;;;;-145.63;55.63;39362.59;5037105;28;20396;-71
2023/10/19 07:19:27;;;;;;;9.77;8.77;;;;;;;-145.63;55.45;39352.81;5041267;28;20026;-69
2023/10/19 07:21:58;;;;;;;8.75;7.85;;;;;;;-145.63;55.28;39354.75;5042270;28;20037;-69
2023/10/19 07:24:24;;;;;;;9.05;8.05;;;;;;;-145.63;55.14;39364.53;5042561;28;20036;-71
2023/10/19 07:26:53;;;;;;;8.52;7.70;;;;;;;-145.63;55.22;39360.63;5042337;28;20030;-71
2023/10/19 07:29:22;;;;;;;9.20;7.53;;;;;;;-145.63;55.14;39317.59;5042235;28;20364;-72
2023/10/19 07:31:48;;;;;;;8.00;7.20;;;;;;;-145.63;54.90;39321.50;5041595;28;20326;-72
2023/10/19 07:34:15;;;;;;;7.40;6.70;;;;;;;-145.63;54.13;39341.06;5041372;28;20116;-73
2023/10/19 07:36:44;;;;;;;7.22;6.50;;;;;;;-145.63;53.63;39344.97;5024579;28;20238;-70
2023/10/19 07:39:18;;;;;;;7.13;6.05;;;;;;;-145.63;54.41;39346.94;5040745;28;20029;-72
2023/10/19 07:41:44;;;;;;;6.82;6.22;;;;;;;-145.63;54.23;39346.94;5044688;28;20045;-71
2023/10/19 07:44:11;;;;;;;10.88;6.85;;;;;;;-145.63;53.42;39327.38;5045322;28;20174;-71
2023/10/19 07:46:37;;;;;;;6.20;5.60;;;;;;;-145.63;53.00;39335.19;5045569;28;20026;-74
2023/10/19 07:49:03;;;;;;;6.93;6.22;;;;;;;-145.63;54.07;39368.44;5044609;28;20029;-70
2023/10/19 07:51:30;;;;;;;6.40;5.80;;;;;;;-145.63;53.40;39339.13;5045857;28;20025;-73
2023/10/19 07:53:56;;;;;;;7.88;5.88;;;;;;;-145.63;52.81;39368.44;5045895;28;20064;-71
2023/10/19 07:56:23;;;;;;;6.97;6.30;;;;;;;-145.63;53.36;39333.25;5044171;28;20030;-70
2023/10/19 07:58:49;;;;;;;6.95;6.13;;;;;;;-145.63;53.01;39350.84;5043876;28;20037;-71
2023/10/19 08:01:15;;;;;;;5.90;5.40;;;;;;;-145.63;53.19;39356.72;5043741;28;20033;-71
2023/10/19 08:03:41;;;;;;;7.28;6.47;;;;;;;-145.63;53.27;39358.66;5044173;28;20029;-71
2023/10/19 08:06:07;;;;;;;8.25;6.80;;;;;;;-145.63;53.17;39341.06;5041427;28;20656;-71
2023/10/19 08:08:36;;;;;;;8.50;6.43;;;;;;;-145.63;53.64;39343.03;5043766;28;20416;-72
2023/10/19 08:11:02;;;;;;;10.20;8.55;;;;;;;-145.63;53.44;39325.41;5045041;28;20029;-71
2023/10/19 08:13:28;;;;;;;9.32;8.30;;;;;;;-145.63;52.94;39348.88;5045160;28;20137;-70
2023/10/19 08:15:54;;;;;;;9.10;8.10;;;;;;;-145.63;53.56;39307.81;5027137;28;20013;-71
2023/10/19 08:18:20;;;;;;;9.80;8.02;;;;;;;-145.63;53.55;39368.44;5044710;28;20025;-71
2023/10/19 08:20:46;;;;;;;9.05;7.68;;;;;;;-145.63;52.21;39360.63;5044273;28;20035;-71
2023/10/19 08:23:23;;;;;;;8.30;7.53;;;;;;;-145.63;52.96;39327.38;5044317;28;20210;-74
2023/10/19 08:25:50;;;;;;;9.23;8.32;;;;;;;-145.63;52.69;39341.06;5043066;28;20345;-72
2023/10/19 08:28:16;;;;;;;8.88;8.10;;;;;;;-145.63;52.98;39386.06;5045223;28;20029;-72
2023/10/19 08:30:44;;;;;;;9.38;8.35;;;;;;;-145.63;52.65;39346.94;5044314;28;20017;-73
2023/10/19 08:33:13;;;;;;;9.80;8.48;;;;;;;-145.63;53.24;39350.84;5044951;28;20037;-72
2023/10/19 08:35:39;;;;;;;9.18;8.30;;;;;;;-145.63;52.76;39376.28;5045091;28;20025;-71
2023/10/19 08:38:11;;;;;;;9.18;6.28;;;;;;;-145.63;52.22;39368.44;5045138;28;20201;-71
2023/10/19 08:40:38;;;;;;;7.90;7.20;;;;;;;-145.63;52.23;39327.38;5040943;28;20033;-72
2023/10/19 08:43:04;;;;;;;8.93;7.60;;;;;;;-145.63;52.61;39323.47;5045498;28;20221;-72
2023/10/19 08:45:32;;;;;;;8.98;8.07;;;;;;;-145.63;52.81;39356.72;5044792;28;20075;-71
2023/10/19 08:48:01;;;;;;;12.70;8.55;;;;;;;-145.63;53.00;39346.94;5037438;28;20092;-70
2023/10/19 08:50:33;;;;;;;10.32;9.20;;;;;;;-145.63;52.46;39372.34;5044758;28;20316;-72
2023/10/19 08:53:03;;;;;;;11.63;9.50;;;;;;;-145.63;52.94;39331.28;5044049;28;20131;-72
2023/10/19 08:55:30;;;;;;;9.43;8.52;;;;;;;-145.63;53.10;39284.34;5043186;28;20344;-72
2023/10/19 08:57:58;;;;;;;9.70;6.75;;;;;;;-145.63;52.59;39301.94;5042056;28;20033;-71
2023/10/19 09:00:27;;;;;;;7.88;6.80;;;;;;;-145.63;51.85;39362.59;5044774;28;20309;-71
2023/10/19 09:02:56;;;;;;;7.50;6.80;;;;;;;-145.63;52.16;39362.59;5040262;28;20029;-70
2023/10/19 09:05:23;;;;;;;7.15;6.45;;;;;;;-145.63;51.47;39321.50;5043768;28;20048;-69
2023/10/19 09:07:56;;;;;;;8.20;7.00;;;;;;;-145.63;51.93;39356.72;5042263;28;20038;-71
2023/10/19 09:10:27;;;;;;;8.13;7.28;;;;;;;-145.63;52.36;39317.59;5043724;28;20278;-72
2023/10/19 09:13:04;;;;;;;8.18;7.38;;;;;;;-145.63;52.90;39337.16;5044659;28;20044;-71
2023/10/19 09:15:33;;;;;;;7.07;6.40;;;;;;;-145.63;51.61;39360.63;5042861;28;20025;-72
2023/10/19 09:18:15;;;;;;;6.18;5.57;;;;;;;-145.63;52.44;39368.44;5043189;28;20203;-71
2023/10/19 09:20:52;;;;;;;8.00;6.35;;;;;;;-145.63;52.29;39389.97;5043773;28;20207;-71
2023/10/19 09:23:20;;;;;;;7.30;6.10;;;;;;;-145.63;52.31;39348.88;5042954;28;20044;-70
2023/10/19 09:25:47;;;;;;;6.38;5.78;;;;;;;-145.63;52.56;39364.53;5042745;28;20333;-71
2023/10/19 09:28:13;;;;;;;6.35;5.05;;;;;;;-145.63;51.73;39333.25;5042822;28;20053;-70
2023/10/19 09:30:40;;;;;;;4.43;4.03;;;;;;;-145.63;51.89;39374.31;5046369;28;20198;-70
2023/10/19 09:33:09;;;;;;;5.47;4.97;;;;;;;-145.63;51.68;39370.41;5046369;28;20025;-72
2023/10/19 09:35:37;;;;;;;5.38;4.88;;;;;;;-145.63;51.43;39358.66;5044370;28;20179;-71
2023/10/19 09:38:05;;;;;;;5.78;5.18;;;;;;;-145.63;51.37;39290.22;5041162;28;20029;-71
2023/10/19 09:40:30;;;;;;;7.47;5.53;;;;;;;-145.63;52.02;39356.72;5024570;28;20048;-71
2023/10/19 09:42:58;;;;;;;6.40;5.80;;;;;;;-145.63;52.47;39374.31;5040204;28;20029;-72
2023/10/19 09:45:30;;;;;;;5.97;5.45;;;;;;;-145.63;52.69;39411.47;5043542;28;20293;-71
2023/10/19 09:47:56;;;;;;;7.07;6.38;;;;;;;-145.63;52.46;39356.72;5043663;28;20021;-71
2023/10/19 09:50:22;;;;;;;14.60;11.25;;;;;;;-145.63;52.86;39364.53;5043885;28;20030;-71
2023/10/19 09:52:49;;;;;;;7.13;6.15;;;;;;;-145.63;53.21;39372.34;5043390;28;20034;-71
2023/10/19 09:55:23;;;;;;;6.45;5.85;;;;;;;-145.63;53.11;39335.19;5043274;28;20075;-74
2023/10/19 09:58:14;;;;;;;8.93;7.30;;;;;;;-145.63;53.31;39344.97;5039929;28;20037;-71
2023/10/19 10:00:44;;;;;;;9.47;7.27;;;;;;;-145.63;53.51;39380.19;5043250;28;20021;-71
2023/10/19 10:03:43;;;;;;;8.90;7.82;;;;;;;-145.63;53.54;39366.50;5034609;28;20051;-72
2023/10/19 10:06:09;;;;;;;8.88;8.07;;;;;;;-145.63;53.23;39356.72;5043118;28;20083;-71
2023/10/19 10:08:42;;;;;;;9.85;7.90;;;;;;;-145.63;53.23;39356.72;5043307;28;20329;-72
2023/10/19 10:11:17;;;;;;;8.85;7.53;;;;;;;-145.63;53.32;39362.59;5043287;28;20029;-72
2023/10/19 10:13:45;;;;;;;9.90;8.02;;;;;;;-145.63;53.48;39356.72;5043173;28;20053;-72
2023/10/19 10:16:14;;;;;;;13.23;9.82;;;;;;;-145.63;54.21;39411.47;5041626;28;20029;-72
2023/10/19 10:18:44;;;;;;;9.73;8.75;;;;;;;-145.63;54.58;39380.19;5043528;28;20052;-73
2023/10/19 10:21:23;;;;;;;8.85;7.88;;;;;;;-145.63;54.56;39386.06;5042941;28;20153;-72
2023/10/19 10:23:53;;;;;;;10.18;8.23;;;;;;;-145.63;53.67;39423.22;5042787;28;20029;-73
2023/10/19 10:26:24;;;;;;;9.73;8.00;;;;;;;-145.63;53.50;39380.19;5042963;28;20302;-70
2023/10/19 10:29:23;;;;;;;9.57;7.93;;;;;;;-145.63;53.20;39403.66;5043033;28;20029;-70
2023/10/19 10:31:50;;;;;;;8.10;7.30;;;;;;;-145.63;53.19;39399.75;5040009;28;20037;-69
2023/10/19 10:34:33;;;;;;;8.27;7.40;;;;;;;-145.63;52.99;39337.16;5042704;28;20045;-71
2023/10/19 10:37:03;;;;;;;7.57;6.85;;;;;;;-145.63;52.95;39366.50;5030348;28;20251;-72
2023/10/19 10:39:30;;;;;;;10.10;6.90;;;;;;;-145.63;53.67;39403.66;5035883;28;20025;-72
2023/10/19 10:41:59;;;;;;;8.00;7.20;;;;;;;-145.63;53.78;39384.09;5042686;28;20093;-71
2023/10/19 10:44:42;;;;;;;9.20;7.63;;;;;;;-145.63;53.68;39348.88;5042865;28;20096;-72
2023/10/19 10:47:10;;;;;;;9.18;7.20;;;;;;;-145.63;53.53;39374.31;5042503;28;20060;-71
2023/10/19 10:49:57;;;;;;;7.70;7.00;;;;;;;-145.63;54.28;39360.63;5042714;28;20025;-72
2023/10/19 10:52:28;;;;;;;9.45;7.63;;;;;;;-145.63;54.38;39368.44;5023254;28;20046;-71
2023/10/19 10:54:56;;;;;;;8.80;6.82;;;;;;;-145.63;53.92;39352.81;5038948;28;20052;-73
2023/10/19 10:57:23;;;;;;;7.15;6.38;;;;;;;-145.63;53.40;39335.19;5042047;28;20041;-72
2023/10/19 11:00:23;;;;;;;7.10;6.40;;;;;;;-145.63;53.86;38942.13;5042254;28;20337;-72
2023/10/19 11:03:10;;;;;;;6.28;5.65;;;;;;;-145.63;53.92;39376.28;5042513;28;20025;-71
2023/10/19 11:05:37;;;;;;;6.30;5.45;;;;;;;-145.63;53.42;39343.03;5042454;28;20029;-70
2023/10/19 11:08:07;;;;;;;5.60;5.00;;;;;;;-145.63;54.28;39341.06;5042737;28;20036;-70
2023/10/19 11:10:34;;;;;;;4.97;4.38;;;;;;;-145.63;52.96;39344.97;5042738;28;20031;-71
2023/10/19 11:13:03;;;;;;;5.22;4.50;;;;;;;-145.63;52.30;39344.97;5042602;28;20025;-71
2023/10/19 11:15:29;;;;;;;4.80;4.30;;;;;;;-145.63;53.13;39341.06;5044179;28;20063;-72
2023/10/19 11:17:55;;;;;;;4.07;3.72;;;;;;;-145.63;52.01;39358.66;5034715;28;20025;-72
2023/10/19 11:20:22;;;;;;;6.57;4.30;;;;;;;-145.63;52.74;39329.34;5045279;28;20064;-72
2023/10/19 11:22:52;;;;;;;3.42;2.75;;;;;;;-145.63;51.68;39354.75;5046667;28;20017;-70
2023/10/19 11:25:23;;;;;;;4.95;3.47;;;;;;;-145.63;52.88;39364.53;5046560;28;20317;-71
2023/10/19 11:27:48;;;;;;;3.28;2.97;;;;;;;-145.63;52.29;39405.59;5046338;28;20140;-70
2023/10/19 11:30:24;;;;;;;4.03;3.63;;;;;;;-145.63;52.70;39317.59;5046137;28;20037;-71
2023/10/19 11:32:52;;;;;;;4.53;3.15;;;;;;;-145.63;52.88;39352.81;5046497;28;20039;-73
2023/10/19 11:35:19;;;;;;;4.75;3.80;;;;;;;-145.63;53.09;39376.28;5046481;28;20033;-75
2023/10/19 11:37:50;;;;;;;4.25;3.42;;;;;;;-145.63;53.06;39327.38;5046575;28;20128;-73
2023/10/19 11:40:16;;;;;;;4.00;3.58;;;;;;;-145.63;53.17;39384.09;5045826;28;20225;-69
2023/10/19 11:42:42;;;;;;;4.32;3.80;;;;;;;-145.63;53.75;39343.03;5047033;28;20036;-70
2023/10/19 11:45:08;;;;;;;5.30;3.97;;;;;;;-145.63;53.71;39348.88;5044800;28;20171;-72
2023/10/19 11:47:34;;;;;;;4.00;3.60;;;;;;;-145.63;53.60;39333.25;5046300;28;20041;-70
2023/10/19 11:50:00;;;;;;;4.57;3.60;;;;;;;-145.63;52.98;39311.72;5045856;28;20100;-71
2023/10/19 11:52:27;;;;;;;3.55;3.25;;;;;;;-145.63;53.55;39364.53;5046045;28;20051;-71
2023/10/19 11:54:54;;;;;;;6.55;4.30;;;;;;;-145.63;54.04;39372.34;5045996;28;20075;-70
2023/10/19 11:57:19;;;;;;;5.63;4.07;;;;;;;-145.63;53.36;39376.28;5041157;28;20030;-71
2023/10/19 11:59:45;;;;;;;6.97;4.05;;;;;;;-145.63;53.43;39397.78;5045888;28;20032;-70
2023/10/19 12:02:11;;;;;;;5.53;4.13;;;;;;;-145.63;53.90;39386.06;5045727;28;20221;-70